createdAt,value
2022-12-23T00:00:45.350Z,101046.88
2022-12-23T00:03:12.907Z,101037.09
2022-12-23T00:05:41.114Z,101038.91
2022-12-23T00:08:08.688Z,101053.22
2022-12-23T00:10:40.322Z,101070.31
2022-12-23T00:13:27.450Z,101081.22
2022-12-23T00:16:03.692Z,101066.94
2022-12-23T00:18:31.337Z,101081.34
2022-12-23T00:21:08.299Z,101077.78
2022-12-23T00:23:39.400Z,101061.81
2022-12-23T00:26:07.249Z,101068.03
2022-12-23T00:28:34.616Z,101056.44
2022-12-23T00:31:04.863Z,101050.31
2022-12-23T00:33:37.500Z,101053.91
2022-12-23T00:36:13.204Z,101067.44
2022-12-23T00:38:59.325Z,101063.91
2022-12-23T00:41:45.435Z,101055.13
2022-12-23T00:44:13.072Z,101048.88
2022-12-23T00:46:40.360Z,101052.56
2022-12-23T00:49:25.991Z,101071.53
2022-12-23T00:51:53.293Z,101078.72
2022-12-23T00:54:20.537Z,101080.44
2022-12-23T00:56:47.880Z,101078.72
2022-12-23T00:59:15.179Z,101084.09
2022-12-23T01:02:01.330Z,101079.69
2022-12-23T01:04:47.104Z,101079.69
2022-12-23T01:07:14.424Z,101070.78
2022-12-23T01:09:41.792Z,101079.69
2022-12-23T01:12:09.074Z,101075.31
2022-12-23T01:14:36.544Z,101079.84
2022-12-23T01:17:04.567Z,101084.34
2022-12-23T01:19:32.162Z,101089.72
2022-12-23T01:21:59.444Z,101111.22
2022-12-23T01:24:31.108Z,101110.38
2022-12-23T01:26:58.841Z,101115.75
2022-12-23T01:29:26.410Z,101116.75
2022-12-23T01:31:53.777Z,101118.56
2022-12-23T01:34:21.152Z,101110.63
2022-12-23T01:36:48.518Z,101111.47
2022-12-23T01:39:15.908Z,101134.81
2022-12-23T01:42:01.972Z,101136.66
2022-12-23T01:44:53.863Z,101117.84
2022-12-23T01:47:27.764Z,101121.53
2022-12-23T01:50:08.539Z,101101.88
2022-12-23T01:52:51.647Z,101084.88
2022-12-23T01:55:22.967Z,101080.47
2022-12-23T01:57:51.339Z,101088.53
2022-12-23T02:00:37.058Z,101109.19
2022-12-23T02:03:23.023Z,101102.97
2022-12-23T02:05:51.747Z,101095.88
2022-12-23T02:08:38.127Z,101107.50
2022-12-23T02:11:34.460Z,101120.06
2022-12-23T02:14:41.481Z,101114.94
2022-12-23T02:17:28.046Z,101103.22
2022-12-23T02:20:01.123Z,101099.66
2022-12-23T02:22:31.112Z,101103.22
2022-12-23T02:25:33.274Z,101094.44
2022-12-23T02:28:15.503Z,101092.47
2022-12-23T02:31:23.999Z,101070.25
2022-12-23T02:33:54.026Z,101057.78
2022-12-23T02:36:42.979Z,101059.63
2022-12-23T02:39:33.129Z,101059.63
2022-12-23T02:42:22.624Z,101065.00
2022-12-23T02:45:18.949Z,101081.13
2022-12-23T02:47:59.725Z,101085.66
2022-12-23T02:50:32.268Z,101066.97
2022-12-23T02:53:04.955Z,101070.50
2022-12-23T02:55:36.656Z,101057.09
2022-12-23T02:58:11.125Z,101058.06
2022-12-23T03:00:40.810Z,101053.66
2022-12-23T03:03:08.344Z,101064.41
2022-12-23T03:05:42.980Z,101052.69
2022-12-23T03:08:17.092Z,101054.53
2022-12-23T03:11:06.810Z,101051.97
2022-12-23T03:14:08.061Z,101027.78
2022-12-23T03:16:57.990Z,101038.66
2022-12-23T03:19:33.712Z,101041.34
2022-12-23T03:22:09.972Z,101034.16
2022-12-23T03:24:40.857Z,101023.41
2022-12-23T03:27:22.650Z,101031.47
2022-12-23T03:30:16.204Z,101033.41
2022-12-23T03:32:59.460Z,101022.66
2022-12-23T03:35:30.231Z,101015.59
2022-12-23T03:37:59.168Z,101021.97
2022-12-23T03:40:38.280Z,101021.09
2022-12-23T03:43:12.395Z,101020.25
2022-12-23T03:45:44.863Z,101036.38
2022-12-23T03:48:19.979Z,101040.91
2022-12-23T03:50:51.709Z,101043.59
2022-12-23T03:53:24.583Z,101031.97
2022-12-23T03:55:56.700Z,101016.84
2022-12-23T03:58:29.529Z,101023.06
2022-12-23T04:01:10.123Z,101025.88
2022-12-23T04:03:53.568Z,101043.69
2022-12-23T04:06:22.004Z,101038.31
2022-12-23T04:08:50.365Z,101011.59
2022-12-23T04:11:17.578Z,101016.97
2022-12-23T04:13:48.102Z,101030.41
2022-12-23T04:16:16.694Z,101030.41
2022-12-23T04:18:44.077Z,101024.19
2022-12-23T04:21:11.304Z,101008.06
2022-12-23T04:23:40.272Z,101000.97
2022-12-23T04:26:07.476Z,101007.22
2022-12-23T04:28:34.729Z,101022.47
2022-12-23T04:31:02.027Z,101031.41
2022-12-23T04:33:29.327Z,101051.16
2022-12-23T04:35:58.958Z,101044.94
2022-12-23T04:38:26.275Z,101035.19
2022-12-23T04:40:53.551Z,101033.34
2022-12-23T04:43:20.778Z,101030.66
2022-12-23T04:45:51.892Z,101046.78
2022-12-23T04:48:19.279Z,101043.22
2022-12-23T04:50:46.632Z,101044.22
2022-12-23T04:53:13.944Z,101040.56
2022-12-23T04:55:41.259Z,101047.75
2022-12-23T04:58:08.586Z,101054.09
2022-12-23T05:00:39.795Z,101048.72
2022-12-23T05:03:07.477Z,101050.53
2022-12-23T05:05:34.837Z,101058.56
2022-12-23T05:08:05.986Z,101046.97
2022-12-23T05:10:33.321Z,101021.97
2022-12-23T05:13:00.600Z,101026.34
2022-12-23T05:15:27.900Z,101038.94
2022-12-23T05:17:55.145Z,101045.16
2022-12-23T05:20:22.383Z,101038.09
2022-12-23T05:22:49.569Z,101028.31
2022-12-23T05:25:17.001Z,101031.00
2022-12-23T05:27:44.282Z,101037.38
2022-12-23T05:30:11.974Z,101040.91
2022-12-23T05:32:39.403Z,101062.38
2022-12-23T05:35:07.063Z,101063.34
2022-12-23T05:37:34.337Z,101045.44
2022-12-23T05:40:01.692Z,101051.75
2022-12-23T05:42:29.056Z,101062.50
2022-12-23T05:44:56.276Z,101051.75
2022-12-23T05:47:23.572Z,101044.69
2022-12-23T05:49:50.879Z,101050.06
2022-12-23T05:52:18.117Z,101048.22
2022-12-23T05:54:45.305Z,101038.47
2022-12-23T05:57:12.959Z,101046.53
2022-12-23T05:59:40.229Z,101050.06
2022-12-23T06:02:07.649Z,101068.00
2022-12-23T06:04:35.105Z,101065.31
2022-12-23T06:07:02.492Z,101075.06
2022-12-23T06:09:29.736Z,101081.56
2022-12-23T06:11:56.938Z,101088.66
2022-12-23T06:14:28.839Z,101096.69
2022-12-23T06:16:56.902Z,101103.91
2022-12-23T06:19:24.478Z,101092.31
2022-12-23T06:21:51.729Z,101088.75
2022-12-23T06:24:18.980Z,101076.22
2022-12-23T06:26:46.309Z,101070.84
2022-12-23T06:29:13.679Z,101066.41
2022-12-23T06:31:40.873Z,101066.41
2022-12-23T06:34:08.113Z,101060.19
2022-12-23T06:36:35.404Z,101063.75
2022-12-23T06:39:02.680Z,101070.09
2022-12-23T06:41:29.961Z,101069.09
2022-12-23T06:43:57.274Z,101068.16
2022-12-23T06:46:24.559Z,101077.16
2022-12-23T06:48:51.904Z,101074.47
2022-12-23T06:51:19.524Z,101067.28
2022-12-23T06:53:46.775Z,101082.53
2022-12-23T06:56:14.000Z,101089.75
2022-12-23T06:58:41.301Z,101086.19
2022-12-23T07:01:10.103Z,101093.41
2022-12-23T07:03:37.671Z,101084.50
2022-12-23T07:06:05.120Z,101093.56
2022-12-23T07:08:32.350Z,101092.56
2022-12-23T07:11:00.823Z,101081.06
2022-12-23T07:13:28.283Z,101080.13
2022-12-23T07:15:56.026Z,101081.06
2022-12-23T07:18:24.144Z,101089.97
2022-12-23T07:20:52.290Z,101097.19
2022-12-23T07:23:19.518Z,101098.91
2022-12-23T07:25:46.839Z,101087.31
2022-12-23T07:28:14.082Z,101081.06
2022-12-23T07:30:41.362Z,101075.72
2022-12-23T07:33:08.731Z,101069.50
2022-12-23T07:35:36.112Z,101081.22
2022-12-23T07:38:03.960Z,101087.44
2022-12-23T07:40:31.201Z,101088.28
2022-12-23T07:42:59.693Z,101102.56
2022-12-23T07:45:28.497Z,101102.56
2022-12-23T07:47:57.510Z,101106.97
2022-12-23T07:50:26.406Z,101112.34
2022-12-23T07:52:54.654Z,101112.44
2022-12-23T07:55:22.630Z,101109.78
2022-12-23T07:57:51.388Z,101113.31
2022-12-23T08:00:20.380Z,101114.28
2022-12-23T08:02:48.322Z,101112.59
2022-12-23T08:05:16.517Z,101122.34
2022-12-23T08:07:45.326Z,101140.28
2022-12-23T08:10:13.149Z,101143.81
2022-12-23T08:12:40.405Z,101143.81
2022-12-23T08:15:08.387Z,101134.91
2022-12-23T08:17:35.579Z,101111.75
2022-12-23T08:20:03.014Z,101124.31
2022-12-23T08:22:31.867Z,101118.06
2022-12-23T08:24:59.825Z,101112.69
2022-12-23T08:27:27.285Z,101109.16
2022-12-23T08:29:55.926Z,101105.53
2022-12-23T08:32:27.091Z,101107.31
2022-12-23T08:34:56.987Z,101118.94
2022-12-23T08:37:25.206Z,101107.31
2022-12-23T08:39:52.439Z,101104.53
2022-12-23T08:42:20.223Z,101100.88
2022-12-23T08:44:47.539Z,101109.66
2022-12-23T08:47:14.819Z,101114.88
2022-12-23T08:49:42.229Z,101117.44
2022-12-23T08:52:09.593Z,101111.97
2022-12-23T08:54:36.814Z,101110.13
2022-12-23T08:57:04.023Z,101120.72
2022-12-23T08:59:31.267Z,101131.38
2022-12-23T09:01:59.808Z,101127.81
2022-12-23T09:04:27.285Z,101133.91
2022-12-23T09:06:54.639Z,101130.38
2022-12-23T09:09:21.904Z,101132.22
2022-12-23T09:11:49.165Z,101135.75
2022-12-23T09:14:16.397Z,101142.81
2022-12-23T09:16:43.768Z,101137.44
2022-12-23T09:19:11.111Z,101138.31
2022-12-23T09:21:38.418Z,101130.25
2022-12-23T09:24:06.219Z,101132.94
2022-12-23T09:26:33.619Z,101131.97
2022-12-23T09:29:00.984Z,101131.03
2022-12-23T09:31:35.886Z,101135.53
2022-12-23T09:34:04.981Z,101132.94
2022-12-23T09:36:32.279Z,101125.72
2022-12-23T09:38:59.596Z,101129.28
2022-12-23T09:41:51.008Z,101128.41
2022-12-23T09:44:48.846Z,101125.00
2022-12-23T09:47:20.911Z,101133.91
2022-12-23T09:50:02.384Z,101134.91
2022-12-23T09:52:52.926Z,101144.78
2022-12-23T09:55:23.670Z,101131.47
2022-12-23T09:58:06.567Z,101118.91
2022-12-23T10:00:47.952Z,101114.38
2022-12-23T10:03:26.038Z,101117.94
2022-12-23T10:05:56.483Z,101117.06
2022-12-23T10:08:54.410Z,101126.09
2022-12-23T10:11:46.997Z,101129.78
2022-12-23T10:14:31.327Z,101123.56
2022-12-23T10:17:08.866Z,101117.56
2022-12-23T10:19:41.881Z,101115.03
2022-12-23T10:22:37.255Z,101126.88
2022-12-23T10:25:22.846Z,101135.06
2022-12-23T10:27:50.072Z,101137.75
2022-12-23T10:30:53.958Z,101125.28
2022-12-23T10:33:30.597Z,101134.06
2022-12-23T10:36:20.133Z,101123.34
2022-12-23T10:38:47.561Z,101122.34
2022-12-23T10:41:38.228Z,101124.03
2022-12-23T10:44:26.486Z,101128.47
2022-12-23T10:47:11.768Z,101120.88
2022-12-23T10:49:58.247Z,101113.38
2022-12-23T10:52:29.751Z,101108.13
2022-12-23T10:54:57.014Z,101107.16
2022-12-23T10:57:26.056Z,101098.78
2022-12-23T10:59:53.382Z,101090.44
2022-12-23T11:02:46.014Z,101082.91
2022-12-23T11:05:22.376Z,101084.09
2022-12-23T11:07:49.677Z,101097.88
2022-12-23T11:10:20.889Z,101108.25
2022-12-23T11:12:53.128Z,101108.84
2022-12-23T11:15:31.258Z,101114.81
2022-12-23T11:18:18.669Z,101119.06
2022-12-23T11:21:03.885Z,101126.88
2022-12-23T11:23:36.807Z,101137.50
2022-12-23T11:26:09.661Z,101145.28
2022-12-23T11:28:48.265Z,101124.66
2022-12-23T11:31:17.089Z,101112.97
2022-12-23T11:34:05.201Z,101118.34
2022-12-23T11:36:33.785Z,101126.25
2022-12-23T11:39:14.471Z,101127.09
2022-12-23T11:41:48.854Z,101110.16
2022-12-23T11:44:30.915Z,101105.53
2022-12-23T11:47:17.168Z,101084.88
2022-12-23T11:49:54.010Z,101051.81
2022-12-23T11:52:23.578Z,101042.78
2022-12-23T11:54:55.603Z,101033.88
2022-12-23T11:57:27.432Z,101028.38
2022-12-23T12:00:01.745Z,101007.88
2022-12-23T12:02:43.261Z,101008.72
2022-12-23T12:05:22.836Z,101018.63
2022-12-23T12:07:52.091Z,101024.84
2022-12-23T12:10:28.114Z,101020.31
2022-12-23T12:13:03.518Z,101028.38
2022-12-23T12:15:49.222Z,101031.06
2022-12-23T12:18:19.771Z,101029.34
2022-12-23T12:20:53.189Z,101031.06
2022-12-23T12:23:26.316Z,101025.69
2022-12-23T12:25:55.936Z,101014.09
2022-12-23T12:28:29.047Z,101007.88
2022-12-23T12:31:11.597Z,101001.50
2022-12-23T12:34:03.604Z,101008.72
2022-12-23T12:36:49.881Z,101009.56
2022-12-23T12:39:28.110Z,101008.72
2022-12-23T12:42:05.250Z,101024.84
2022-12-23T12:44:57.237Z,101024.84
2022-12-23T12:50:27.911Z,100980.19
2022-12-23T12:52:59.824Z,100966.75
2022-12-23T12:55:32.543Z,100971.28
2022-12-23T12:58:02.813Z,100973.97
2022-12-23T13:01:08.296Z,100995.44
2022-12-23T13:04:00.161Z,100993.72
2022-12-23T13:06:41.255Z,101003.50
2022-12-23T13:09:50.611Z,101015.09
2022-12-23T13:12:29.369Z,101002.50
2022-12-23T13:15:04.964Z,101011.53
2022-12-23T13:17:38.644Z,100995.44
2022-12-23T13:20:46.117Z,100995.44
2022-12-23T13:23:42.850Z,100973.06
2022-12-23T13:26:24.780Z,100977.59
2022-12-23T13:29:18.220Z,100966.75
2022-12-23T13:31:52.242Z,100978.44
2022-12-23T13:34:26.033Z,100973.97
2022-12-23T13:37:18.097Z,100983.81
2022-12-23T13:39:54.118Z,100990.06
2022-12-23T13:42:40.581Z,100989.19
2022-12-23T13:45:18.536Z,100989.19
2022-12-23T13:48:05.079Z,100989.19
2022-12-23T13:50:50.303Z,100998.13
2022-12-23T13:53:22.347Z,101000.81
2022-12-23T13:55:57.770Z,101003.50
2022-12-23T13:58:27.483Z,100999.94
2022-12-23T14:01:18.791Z,100999.94
2022-12-23T14:03:49.698Z,101017.88
2022-12-23T14:06:24.468Z,101016.19
2022-12-23T14:08:53.364Z,101025.09
2022-12-23T14:11:29.956Z,101032.28
2022-12-23T14:14:06.978Z,101038.50
2022-12-23T14:16:40.198Z,101040.34
2022-12-23T14:19:25.217Z,101033.97
2022-12-23T14:22:16.218Z,101031.28
2022-12-23T14:25:01.558Z,101036.81
2022-12-23T14:28:10.535Z,101029.59
2022-12-23T14:30:41.313Z,101027.91
2022-12-23T14:33:27.740Z,101024.22
2022-12-23T14:35:58.864Z,101026.06
2022-12-23T14:38:32.080Z,101029.59
2022-12-23T14:41:00.844Z,101027.75
2022-12-23T14:43:46.097Z,101026.91
2022-12-23T14:46:35.310Z,101028.75
2022-12-23T14:49:37.528Z,101024.22
2022-12-23T14:51:52.772Z,101025.09
2022-12-23T14:54:38.030Z,101008.13
2022-12-23T14:57:16.804Z,101003.59
2022-12-23T15:00:00.476Z,100991.16
2022-12-23T15:02:37.103Z,101002.75
2022-12-23T15:05:05.151Z,101005.44
2022-12-23T15:07:38.639Z,101003.59
2022-12-23T15:10:15.430Z,100999.22
2022-12-23T15:12:47.642Z,101005.44
2022-12-23T15:15:25.102Z,101010.81
2022-12-23T15:18:13.049Z,101009.13
2022-12-23T15:20:41.047Z,101017.16
2022-12-23T15:23:11.413Z,101014.47
2022-12-23T15:25:42.430Z,101018.88
2022-12-23T15:28:18.900Z,101009.97
2022-12-23T15:30:52.935Z,101007.28
2022-12-23T15:36:12.572Z,100995.69
2022-12-23T15:38:40.053Z,101000.06
2022-12-23T15:41:16.150Z,100988.34
2022-12-23T15:43:44.483Z,100983.81
2022-12-23T15:46:23.405Z,100998.13
2022-12-23T15:48:54.846Z,101005.31
2022-12-23T15:54:22.924Z,101004.44
2022-12-23T15:56:53.254Z,101005.31
2022-12-23T15:59:24.973Z,101020.44
2022-12-23T16:01:53.135Z,101027.50
2022-12-23T16:04:28.684Z,101030.06
2022-12-23T16:06:56.521Z,101027.28
2022-12-23T16:09:32.127Z,101029.97
2022-12-23T16:12:23.805Z,101028.97
2022-12-23T16:15:00.910Z,101019.06
2022-12-23T16:17:35.946Z,101011.88
2022-12-23T16:20:25.305Z,100997.44
2022-12-23T16:23:00.657Z,100976.84
2022-12-23T16:25:31.756Z,100981.34
2022-12-23T16:28:14.896Z,100970.50
2022-12-23T16:30:43.528Z,100962.44
2022-12-23T16:33:29.559Z,100945.34
2022-12-23T16:36:26.077Z,100948.00
2022-12-23T16:38:57.410Z,100949.84
2022-12-23T16:41:24.695Z,100958.75
2022-12-23T16:43:53.058Z,100987.44
2022-12-23T16:46:23.225Z,101010.78
2022-12-23T16:48:55.844Z,101018.69
2022-12-23T16:51:23.971Z,101027.72
2022-12-23T16:53:55.299Z,101024.06
2022-12-23T16:56:27.009Z,101023.22
2022-12-23T16:58:54.479Z,101032.97
2022-12-23T17:01:30.466Z,101030.28
2022-12-23T17:03:57.776Z,101033.09
2022-12-23T17:06:25.583Z,101034.78
2022-12-23T17:08:53.392Z,101040.16
2022-12-23T17:11:30.917Z,101023.22
2022-12-23T17:14:04.645Z,101025.88
2022-12-23T17:16:33.207Z,101030.28
2022-12-23T17:19:00.509Z,101032.13
2022-12-23T17:21:33.659Z,101035.66
2022-12-23T17:24:22.175Z,101033.94
2022-12-23T17:26:49.994Z,101038.31
2022-12-23T17:29:17.460Z,101030.28
2022-12-23T17:31:45.545Z,101035.66
2022-12-23T17:34:18.513Z,101049.91
2022-12-23T17:36:49.930Z,101047.22
2022-12-23T17:39:19.771Z,101056.16
2022-12-23T17:41:47.565Z,101057.13
2022-12-23T17:44:17.070Z,101044.56
2022-12-23T17:46:45.911Z,101038.31
2022-12-23T17:49:13.279Z,101036.50
2022-12-23T17:51:41.723Z,101023.22
2022-12-23T17:54:26.253Z,101025.88
2022-12-23T17:56:53.668Z,101019.53
2022-12-23T17:59:21.482Z,101023.22
2022-12-23T18:01:49.154Z,101025.88
2022-12-23T18:04:16.463Z,101024.06
2022-12-23T18:06:43.779Z,101043.00
2022-12-23T18:09:11.034Z,101057.28
2022-12-23T18:11:46.769Z,101062.63
2022-12-23T18:14:26.872Z,101087.78
2022-12-23T18:16:54.298Z,101089.50
2022-12-23T18:19:21.882Z,101092.19
2022-12-23T18:21:50.136Z,101079.59
2022-12-23T18:24:18.022Z,101075.06
2022-12-23T18:26:45.422Z,101071.53
2022-12-23T18:29:12.683Z,101063.50
2022-12-23T18:31:50.911Z,101056.41
2022-12-23T18:34:19.608Z,101053.72
2022-12-23T18:36:48.264Z,101059.09
2022-12-23T18:39:15.774Z,101063.50
2022-12-23T18:41:43.180Z,101065.31
2022-12-23T18:44:19.917Z,101078.63
2022-12-23T18:46:48.509Z,101068.84
2022-12-23T18:49:16.093Z,101063.50
2022-12-23T18:51:43.387Z,101043.84
2022-12-23T18:54:17.051Z,101033.09
2022-12-23T18:56:44.735Z,101026.88
2022-12-23T18:59:29.547Z,101031.25
2022-12-23T19:01:58.247Z,101018.69
2022-12-23T19:04:26.856Z,101022.34
2022-12-23T19:06:55.882Z,101042.00
2022-12-23T19:09:24.539Z,101053.72
2022-12-23T19:11:53.365Z,101053.72
2022-12-23T19:14:20.742Z,101034.94
2022-12-23T19:16:51.909Z,101034.94
2022-12-23T19:19:20.960Z,101036.78
2022-12-23T19:21:48.596Z,101038.47
2022-12-23T19:24:16.060Z,101031.41
2022-12-23T19:26:43.412Z,101014.44
2022-12-23T19:29:10.714Z,101016.13
2022-12-23T19:31:38.129Z,101011.75
2022-12-23T19:34:09.720Z,101009.06
2022-12-23T19:36:41.988Z,100992.97
2022-12-23T19:39:16.361Z,100987.59
2022-12-23T19:41:45.066Z,100979.53
2022-12-23T19:44:12.389Z,100967.91
2022-12-23T19:46:39.823Z,100986.72
2022-12-23T19:49:07.121Z,101009.91
2022-12-23T19:51:34.471Z,101009.91
2022-12-23T19:54:01.966Z,101014.44
2022-12-23T19:56:30.490Z,101012.59
2022-12-23T19:58:58.608Z,101017.97
2022-12-23T20:01:26.598Z,101029.44
2022-12-23T20:03:55.871Z,101047.38
2022-12-23T20:06:30.871Z,101033.94
2022-12-23T20:09:03.336Z,101024.91
2022-12-23T20:11:34.582Z,101033.69
2022-12-23T20:14:03.077Z,101057.88
2022-12-23T20:16:30.907Z,101068.59
2022-12-23T20:18:58.373Z,101054.19
2022-12-23T20:21:25.615Z,101056.03
2022-12-23T20:23:53.224Z,101077.38
2022-12-23T20:26:20.807Z,101084.59
2022-12-23T20:28:48.180Z,101089.97
2022-12-23T20:31:28.841Z,101096.19
2022-12-23T20:33:57.198Z,101091.69
2022-12-23T20:36:28.080Z,101077.38
2022-12-23T20:38:56.276Z,101073.75
2022-12-23T20:41:26.737Z,101071.94
2022-12-23T20:44:31.469Z,101074.63
2022-12-23T20:46:42.049Z,101068.41
2022-12-23T20:49:09.325Z,101062.03
2022-12-23T20:51:36.700Z,101077.31
2022-12-23T20:54:04.041Z,101087.19
2022-12-23T20:56:31.874Z,101098.78
2022-12-23T20:58:59.534Z,101093.41
2022-12-23T21:01:35.883Z,101098.78
2022-12-23T21:04:06.035Z,101084.50
2022-12-23T21:06:35.051Z,101094.25
2022-12-23T21:09:05.048Z,101105.00
2022-12-23T21:11:36.140Z,101111.22
2022-12-23T21:14:07.207Z,101103.16
2022-12-23T21:16:36.687Z,101105.00
2022-12-23T21:19:06.103Z,101110.38
2022-12-23T21:21:33.781Z,101112.94
2022-12-23T21:24:04.523Z,101101.34
2022-12-23T21:26:34.270Z,101106.69
2022-12-23T21:29:05.073Z,101120.13
2022-12-23T21:31:34.733Z,101138.94
2022-12-23T21:34:02.990Z,101153.22
2022-12-23T21:36:33.588Z,101168.47
2022-12-23T21:39:01.295Z,101181.91
2022-12-23T21:41:30.655Z,101194.34
2022-12-23T21:43:59.417Z,101154.06
2022-12-23T21:46:28.845Z,101127.19
2022-12-23T21:48:57.711Z,101113.78
2022-12-23T21:51:33.315Z,101116.59
2022-12-23T21:54:06.132Z,101130.88
2022-12-23T21:56:33.479Z,101148.69
2022-12-23T21:59:10.170Z,101150.53
2022-12-23T22:01:37.549Z,101156.75
2022-12-23T22:04:04.977Z,101147.00
2022-12-23T22:06:37.946Z,101161.28
2022-12-23T22:09:06.849Z,101160.41
2022-12-23T22:11:36.397Z,101160.41
2022-12-23T22:14:06.382Z,101147.00
2022-12-23T22:16:34.856Z,101126.34
2022-12-23T22:19:02.963Z,101113.78
2022-12-23T22:21:32.028Z,101116.47
2022-12-23T22:24:00.411Z,101096.81
2022-12-23T22:26:30.104Z,101092.28
2022-12-23T22:29:00.320Z,101084.22
2022-12-23T22:31:35.642Z,101063.72
2022-12-23T22:34:03.339Z,101064.59
2022-12-23T22:36:31.344Z,101070.94
2022-12-23T22:39:00.342Z,101086.06
2022-12-23T22:41:29.615Z,101086.06
2022-12-23T22:43:58.116Z,101085.22
2022-12-23T22:46:26.384Z,101090.59
2022-12-23T22:48:54.713Z,101092.28
2022-12-23T22:51:27.941Z,101105.72
2022-12-23T22:53:55.763Z,101113.78
2022-12-23T22:56:24.586Z,101107.56
2022-12-23T22:58:52.768Z,101092.28
2022-12-23T23:01:23.813Z,101063.63
2022-12-23T23:03:57.178Z,101059.22
2022-12-23T23:06:26.836Z,101044.81
2022-12-23T23:08:55.114Z,101045.66
2022-12-23T23:11:23.688Z,101050.19
2022-12-23T23:13:51.611Z,101043.94
2022-12-23T23:16:19.011Z,101011.72
2022-12-23T23:18:46.807Z,101029.66
2022-12-23T23:21:14.787Z,101036.88
2022-12-23T23:23:42.031Z,101015.28
2022-12-23T23:26:10.370Z,100984.59
2022-12-23T23:28:39.437Z,100970.31
2022-12-23T23:33:55.413Z,100947.00
2022-12-23T23:36:22.749Z,100939.94
2022-12-23T23:38:50.126Z,100921.00
2022-12-23T23:41:22.406Z,100938.94
2022-12-23T23:43:49.999Z,100950.69
2022-12-23T23:46:17.343Z,100946.16
2022-12-23T23:48:44.699Z,100973.88
2022-12-23T23:51:12.763Z,100992.66
2022-12-23T23:53:40.510Z,100984.59
2022-12-23T23:56:08.689Z,100998.03
2022-12-23T23:58:37.052Z,101006.09
